sensor_id;sensor_type;location;lat;lon;timestamp;P1;durP1;ratioP1;P2;durP2;ratioP2
33104;SDS011;19476;51.448;6.674;2023-10-09T00:00:10;9.35;;;5.30;;
33104;SDS011;19476;51.448;6.674;2023-10-09T00:02:56;10.02;;;5.80;;
33104;SDS011;19476;51.448;6.674;2023-10-09T00:05:30;12.15;;;5.72;;
33104;SDS011;19476;51.448;6.674;2023-10-09T00:08:14;11.25;;;5.95;;
33104;SDS011;19476;51.448;6.674;2023-10-09T00:11:01;9.68;;;5.22;;
33104;SDS011;19476;51.448;6.674;2023-10-09T00:13:42;10.75;;;5.85;;
33104;SDS011;19476;51.448;6.674;2023-10-09T00:16:22;11.52;;;6.00;;
33104;SDS011;19476;51.448;6.674;2023-10-09T00:19:08;10.27;;;5.60;;
33104;SDS011;19476;51.448;6.674;2023-10-09T00:21:47;9.68;;;4.95;;
33104;SDS011;19476;51.448;6.674;2023-10-09T00:24:14;11.70;;;5.87;;
33104;SDS011;19476;51.448;6.674;2023-10-09T00:26:50;12.73;;;5.32;;
33104;SDS011;19476;51.448;6.674;2023-10-09T00:29:35;11.07;;;5.28;;
33104;SDS011;19476;51.448;6.674;2023-10-09T00:32:07;10.77;;;5.63;;
33104;SDS011;19476;51.448;6.674;2023-10-09T00:34:51;10.02;;;5.53;;
33104;SDS011;19476;51.448;6.674;2023-10-09T00:37:17;10.60;;;5.38;;
33104;SDS011;19476;51.448;6.674;2023-10-09T00:39:50;11.05;;;5.40;;
33104;SDS011;19476;51.448;6.674;2023-10-09T00:42:36;9.68;;;4.97;;
33104;SDS011;19476;51.448;6.674;2023-10-09T00:45:04;10.70;;;5.70;;
33104;SDS011;19476;51.448;6.674;2023-10-09T00:47:30;10.10;;;5.55;;
33104;SDS011;19476;51.448;6.674;2023-10-09T00:50:03;9.48;;;5.35;;
33104;SDS011;19476;51.448;6.674;2023-10-09T00:52:40;12.32;;;5.85;;
33104;SDS011;19476;51.448;6.674;2023-10-09T00:55:27;11.30;;;5.80;;
33104;SDS011;19476;51.448;6.674;2023-10-09T00:58:20;11.90;;;6.28;;
33104;SDS011;19476;51.448;6.674;2023-10-09T01:00:52;11.38;;;5.90;;
33104;SDS011;19476;51.448;6.674;2023-10-09T01:03:24;10.20;;;5.45;;
33104;SDS011;19476;51.448;6.674;2023-10-09T01:08:28;10.57;;;5.32;;
33104;SDS011;19476;51.448;6.674;2023-10-09T01:13:48;9.90;;;5.18;;
33104;SDS011;19476;51.448;6.674;2023-10-09T01:16:18;8.55;;;5.07;;
33104;SDS011;19476;51.448;6.674;2023-10-09T01:18:48;10.70;;;5.07;;
33104;SDS011;19476;51.448;6.674;2023-10-09T01:21:19;10.93;;;5.28;;
33104;SDS011;19476;51.448;6.674;2023-10-09T01:23:52;10.05;;;5.28;;
33104;SDS011;19476;51.448;6.674;2023-10-09T01:26:30;10.82;;;5.50;;
33104;SDS011;19476;51.448;6.674;2023-10-09T01:29:22;11.25;;;4.95;;
33104;SDS011;19476;51.448;6.674;2023-10-09T01:31:55;9.90;;;4.95;;
33104;SDS011;19476;51.448;6.674;2023-10-09T01:36:59;10.30;;;5.28;;
33104;SDS011;19476;51.448;6.674;2023-10-09T01:39:30;10.48;;;5.13;;
33104;SDS011;19476;51.448;6.674;2023-10-09T01:41:56;10.40;;;5.20;;
33104;SDS011;19476;51.448;6.674;2023-10-09T01:44:29;9.83;;;5.27;;
33104;SDS011;19476;51.448;6.674;2023-10-09T01:47:03;8.23;;;4.60;;
33104;SDS011;19476;51.448;6.674;2023-10-09T01:49:35;10.07;;;4.85;;
33104;SDS011;19476;51.448;6.674;2023-10-09T01:52:07;9.60;;;5.32;;
33104;SDS011;19476;51.448;6.674;2023-10-09T01:54:37;8.40;;;4.25;;
33104;SDS011;19476;51.448;6.674;2023-10-09T01:57:06;10.15;;;5.03;;
33104;SDS011;19476;51.448;6.674;2023-10-09T01:59:43;10.23;;;4.70;;
33104;SDS011;19476;51.448;6.674;2023-10-09T02:02:14;10.05;;;4.63;;
33104;SDS011;19476;51.448;6.674;2023-10-09T02:05:05;8.43;;;5.30;;
33104;SDS011;19476;51.448;6.674;2023-10-09T02:07:52;9.35;;;4.72;;
33104;SDS011;19476;51.448;6.674;2023-10-09T02:10:18;7.80;;;4.28;;
33104;SDS011;19476;51.448;6.674;2023-10-09T02:12:55;8.70;;;4.30;;
33104;SDS011;19476;51.448;6.674;2023-10-09T02:15:29;8.10;;;4.78;;
33104;SDS011;19476;51.448;6.674;2023-10-09T02:18:07;9.48;;;4.55;;
33104;SDS011;19476;51.448;6.674;2023-10-09T02:23:26;8.88;;;4.95;;
33104;SDS011;19476;51.448;6.674;2023-10-09T02:26:14;9.13;;;4.72;;
33104;SDS011;19476;51.448;6.674;2023-10-09T02:28:51;8.25;;;4.50;;
33104;SDS011;19476;51.448;6.674;2023-10-09T02:31:23;10.70;;;4.22;;
33104;SDS011;19476;51.448;6.674;2023-10-09T02:34:00;12.45;;;4.75;;
33104;SDS011;19476;51.448;6.674;2023-10-09T02:36:32;7.43;;;4.00;;
33104;SDS011;19476;51.448;6.674;2023-10-09T02:39:00;9.13;;;4.80;;
33104;SDS011;19476;51.448;6.674;2023-10-09T02:41:25;7.68;;;4.38;;
33104;SDS011;19476;51.448;6.674;2023-10-09T02:43:59;7.53;;;3.90;;
33104;SDS011;19476;51.448;6.674;2023-10-09T02:46:35;8.55;;;4.68;;
33104;SDS011;19476;51.448;6.674;2023-10-09T02:49:01;8.13;;;4.00;;
33104;SDS011;19476;51.448;6.674;2023-10-09T02:51:35;8.07;;;4.20;;
33104;SDS011;19476;51.448;6.674;2023-10-09T02:54:07;9.43;;;4.13;;
33104;SDS011;19476;51.448;6.674;2023-10-09T02:56:46;7.63;;;4.15;;
33104;SDS011;19476;51.448;6.674;2023-10-09T02:59:34;8.20;;;4.45;;
33104;SDS011;19476;51.448;6.674;2023-10-09T03:02:02;11.57;;;4.32;;
33104;SDS011;19476;51.448;6.674;2023-10-09T03:04:28;7.75;;;3.88;;
33104;SDS011;19476;51.448;6.674;2023-10-09T03:07:00;9.73;;;4.07;;
33104;SDS011;19476;51.448;6.674;2023-10-09T03:09:26;8.30;;;4.50;;
33104;SDS011;19476;51.448;6.674;2023-10-09T03:11:53;7.40;;;3.97;;
33104;SDS011;19476;51.448;6.674;2023-10-09T03:14:31;8.05;;;4.43;;
33104;SDS011;19476;51.448;6.674;2023-10-09T03:17:00;7.43;;;4.20;;
33104;SDS011;19476;51.448;6.674;2023-10-09T03:19:27;8.73;;;4.60;;
33104;SDS011;19476;51.448;6.674;2023-10-09T03:21:54;7.85;;;4.72;;
33104;SDS011;19476;51.448;6.674;2023-10-09T03:24:23;7.65;;;4.07;;
33104;SDS011;19476;51.448;6.674;2023-10-09T03:26:50;8.65;;;4.60;;
33104;SDS011;19476;51.448;6.674;2023-10-09T03:29:20;8.23;;;4.43;;
33104;SDS011;19476;51.448;6.674;2023-10-09T03:31:47;7.20;;;3.67;;
33104;SDS011;19476;51.448;6.674;2023-10-09T03:34:15;7.40;;;3.67;;
33104;SDS011;19476;51.448;6.674;2023-10-09T03:36:42;8.02;;;4.57;;
33104;SDS011;19476;51.448;6.674;2023-10-09T03:39:09;8.23;;;4.10;;
33104;SDS011;19476;51.448;6.674;2023-10-09T03:41:53;8.30;;;3.97;;
33104;SDS011;19476;51.448;6.674;2023-10-09T03:44:26;8.65;;;4.05;;
33104;SDS011;19476;51.448;6.674;2023-10-09T03:46:55;8.45;;;3.85;;
33104;SDS011;19476;51.448;6.674;2023-10-09T03:49:21;7.32;;;4.35;;
33104;SDS011;19476;51.448;6.674;2023-10-09T03:51:51;8.25;;;4.25;;
33104;SDS011;19476;51.448;6.674;2023-10-09T03:54:17;8.65;;;3.78;;
33104;SDS011;19476;51.448;6.674;2023-10-09T03:56:47;11.77;;;4.13;;
33104;SDS011;19476;51.448;6.674;2023-10-09T03:59:16;7.50;;;4.32;;
33104;SDS011;19476;51.448;6.674;2023-10-09T04:01:44;8.43;;;4.30;;
33104;SDS011;19476;51.448;6.674;2023-10-09T04:04:12;9.07;;;3.97;;
33104;SDS011;19476;51.448;6.674;2023-10-09T04:06:42;6.78;;;3.58;;
33104;SDS011;19476;51.448;6.674;2023-10-09T04:09:13;7.70;;;3.92;;
33104;SDS011;19476;51.448;6.674;2023-10-09T04:11:53;7.28;;;4.10;;
33104;SDS011;19476;51.448;6.674;2023-10-09T04:14:35;7.93;;;3.63;;
33104;SDS011;19476;51.448;6.674;2023-10-09T04:17:01;8.75;;;4.32;;
33104;SDS011;19476;51.448;6.674;2023-10-09T04:19:30;7.93;;;4.00;;
33104;SDS011;19476;51.448;6.674;2023-10-09T04:22:04;8.30;;;3.75;;
33104;SDS011;19476;51.448;6.674;2023-10-09T04:24:46;7.50;;;4.05;;
33104;SDS011;19476;51.448;6.674;2023-10-09T04:27:13;8.65;;;4.47;;
33104;SDS011;19476;51.448;6.674;2023-10-09T04:29:42;6.32;;;3.60;;
33104;SDS011;19476;51.448;6.674;2023-10-09T04:32:14;6.95;;;3.80;;
33104;SDS011;19476;51.448;6.674;2023-10-09T04:34:43;7.22;;;3.83;;
33104;SDS011;19476;51.448;6.674;2023-10-09T04:37:21;10.02;;;4.53;;
33104;SDS011;19476;51.448;6.674;2023-10-09T04:40:08;8.73;;;4.18;;
33104;SDS011;19476;51.448;6.674;2023-10-09T04:42:52;8.43;;;4.18;;
33104;SDS011;19476;51.448;6.674;2023-10-09T04:45:24;11.88;;;4.40;;
33104;SDS011;19476;51.448;6.674;2023-10-09T04:48:09;8.20;;;3.70;;
33104;SDS011;19476;51.448;6.674;2023-10-09T04:50:58;8.10;;;4.32;;
33104;SDS011;19476;51.448;6.674;2023-10-09T04:53:42;9.80;;;4.22;;
33104;SDS011;19476;51.448;6.674;2023-10-09T04:56:32;6.60;;;3.75;;
33104;SDS011;19476;51.448;6.674;2023-10-09T04:58:59;6.57;;;3.97;;
33104;SDS011;19476;51.448;6.674;2023-10-09T05:01:33;7.72;;;3.70;;
33104;SDS011;19476;51.448;6.674;2023-10-09T05:04:09;8.15;;;4.38;;
33104;SDS011;19476;51.448;6.674;2023-10-09T05:06:52;6.75;;;3.45;;
33104;SDS011;19476;51.448;6.674;2023-10-09T05:09:24;7.90;;;3.50;;
33104;SDS011;19476;51.448;6.674;2023-10-09T05:11:51;6.72;;;3.40;;
33104;SDS011;19476;51.448;6.674;2023-10-09T05:14:17;8.75;;;3.67;;
33104;SDS011;19476;51.448;6.674;2023-10-09T05:16:52;6.63;;;4.00;;
33104;SDS011;19476;51.448;6.674;2023-10-09T05:19:26;7.05;;;3.40;;
33104;SDS011;19476;51.448;6.674;2023-10-09T05:22:10;7.03;;;3.42;;
33104;SDS011;19476;51.448;6.674;2023-10-09T05:24:55;8.05;;;4.03;;
33104;SDS011;19476;51.448;6.674;2023-10-09T05:27:22;10.38;;;4.10;;
33104;SDS011;19476;51.448;6.674;2023-10-09T05:30:07;7.45;;;4.38;;
33104;SDS011;19476;51.448;6.674;2023-10-09T05:32:52;6.80;;;3.80;;
33104;SDS011;19476;51.448;6.674;2023-10-09T05:35:23;7.40;;;3.85;;
33104;SDS011;19476;51.448;6.674;2023-10-09T05:38:08;6.93;;;4.20;;
33104;SDS011;19476;51.448;6.674;2023-10-09T05:40:49;8.93;;;4.63;;
33104;SDS011;19476;51.448;6.674;2023-10-09T05:43:20;7.60;;;4.07;;
33104;SDS011;19476;51.448;6.674;2023-10-09T05:46:04;7.60;;;3.45;;
33104;SDS011;19476;51.448;6.674;2023-10-09T05:48:34;6.65;;;3.90;;
33104;SDS011;19476;51.448;6.674;2023-10-09T05:51:03;7.93;;;3.95;;
33104;SDS011;19476;51.448;6.674;2023-10-09T05:53:34;8.05;;;3.83;;
33104;SDS011;19476;51.448;6.674;2023-10-09T05:56:09;6.10;;;3.55;;
33104;SDS011;19476;51.448;6.674;2023-10-09T05:58:54;6.85;;;3.03;;
33104;SDS011;19476;51.448;6.674;2023-10-09T06:01:31;7.55;;;4.05;;
33104;SDS011;19476;51.448;6.674;2023-10-09T06:04:15;7.28;;;3.67;;
33104;SDS011;19476;51.448;6.674;2023-10-09T06:06:43;6.18;;;3.70;;
33104;SDS011;19476;51.448;6.674;2023-10-09T06:09:21;7.03;;;3.83;;
33104;SDS011;19476;51.448;6.674;2023-10-09T06:11:48;7.82;;;4.05;;
33104;SDS011;19476;51.448;6.674;2023-10-09T06:14:18;8.38;;;3.97;;
33104;SDS011;19476;51.448;6.674;2023-10-09T06:16:52;6.95;;;3.92;;
33104;SDS011;19476;51.448;6.674;2023-10-09T06:19:36;7.82;;;3.90;;
33104;SDS011;19476;51.448;6.674;2023-10-09T06:22:08;8.13;;;4.07;;
33104;SDS011;19476;51.448;6.674;2023-10-09T06:24:55;7.15;;;3.75;;
33104;SDS011;19476;51.448;6.674;2023-10-09T06:27:22;8.13;;;3.90;;
33104;SDS011;19476;51.448;6.674;2023-10-09T06:29:57;7.68;;;4.25;;
33104;SDS011;19476;51.448;6.674;2023-10-09T06:32:43;7.40;;;4.13;;
33104;SDS011;19476;51.448;6.674;2023-10-09T06:35:35;6.93;;;3.92;;
33104;SDS011;19476;51.448;6.674;2023-10-09T06:38:01;8.38;;;4.38;;
33104;SDS011;19476;51.448;6.674;2023-10-09T06:40:27;7.40;;;4.30;;
33104;SDS011;19476;51.448;6.674;2023-10-09T06:43:19;7.28;;;3.97;;
33104;SDS011;19476;51.448;6.674;2023-10-09T06:45:48;8.35;;;5.03;;
33104;SDS011;19476;51.448;6.674;2023-10-09T06:48:26;5.90;;;3.90;;
33104;SDS011;19476;51.448;6.674;2023-10-09T06:51:08;6.53;;;4.03;;
33104;SDS011;19476;51.448;6.674;2023-10-09T06:54:01;6.78;;;4.00;;
33104;SDS011;19476;51.448;6.674;2023-10-09T06:56:34;8.57;;;4.22;;
33104;SDS011;19476;51.448;6.674;2023-10-09T06:59:04;7.50;;;4.10;;
33104;SDS011;19476;51.448;6.674;2023-10-09T07:01:40;7.45;;;4.35;;
33104;SDS011;19476;51.448;6.674;2023-10-09T07:04:11;9.13;;;4.60;;
33104;SDS011;19476;51.448;6.674;2023-10-09T07:06:52;7.35;;;4.10;;
33104;SDS011;19476;51.448;6.674;2023-10-09T07:09:18;7.95;;;4.25;;
33104;SDS011;19476;51.448;6.674;2023-10-09T07:11:48;10.57;;;4.45;;
33104;SDS011;19476;51.448;6.674;2023-10-09T07:14:21;8.30;;;4.50;;
33104;SDS011;19476;51.448;6.674;2023-10-09T07:16:57;7.95;;;4.65;;
33104;SDS011;19476;51.448;6.674;2023-10-09T07:19:30;9.25;;;4.85;;
33104;SDS011;19476;51.448;6.674;2023-10-09T07:22:01;8.73;;;4.97;;
33104;SDS011;19476;51.448;6.674;2023-10-09T07:27:09;6.85;;;4.30;;
33104;SDS011;19476;51.448;6.674;2023-10-09T07:29:39;8.07;;;4.57;;
33104;SDS011;19476;51.448;6.674;2023-10-09T07:32:14;8.85;;;4.68;;
33104;SDS011;19476;51.448;6.674;2023-10-09T07:34:47;9.02;;;4.47;;
33104;SDS011;19476;51.448;6.674;2023-10-09T07:37:23;9.15;;;4.20;;
33104;SDS011;19476;51.448;6.674;2023-10-09T07:39:50;9.57;;;4.85;;
33104;SDS011;19476;51.448;6.674;2023-10-09T07:42:22;8.82;;;4.95;;
33104;SDS011;19476;51.448;6.674;2023-10-09T07:44:59;8.00;;;4.07;;
33104;SDS011;19476;51.448;6.674;2023-10-09T07:47:36;8.35;;;4.47;;
33104;SDS011;19476;51.448;6.674;2023-10-09T07:50:35;10.05;;;4.07;;
33104;SDS011;19476;51.448;6.674;2023-10-09T07:53:14;8.27;;;4.28;;
33104;SDS011;19476;51.448;6.674;2023-10-09T07:55:54;9.15;;;4.28;;
33104;SDS011;19476;51.448;6.674;2023-10-09T07:58:24;10.02;;;4.78;;
33104;SDS011;19476;51.448;6.674;2023-10-09T08:00:56;8.15;;;4.53;;
33104;SDS011;19476;51.448;6.674;2023-10-09T08:03:48;8.25;;;4.70;;
33104;SDS011;19476;51.448;6.674;2023-10-09T08:06:36;7.18;;;4.40;;
33104;SDS011;19476;51.448;6.674;2023-10-09T08:09:03;9.70;;;5.35;;
33104;SDS011;19476;51.448;6.674;2023-10-09T08:11:47;8.48;;;4.43;;
33104;SDS011;19476;51.448;6.674;2023-10-09T08:14:39;10.45;;;5.32;;
33104;SDS011;19476;51.448;6.674;2023-10-09T08:17:13;8.50;;;4.65;;
33104;SDS011;19476;51.448;6.674;2023-10-09T08:19:49;7.68;;;4.63;;
33104;SDS011;19476;51.448;6.674;2023-10-09T08:22:23;10.82;;;4.63;;
33104;SDS011;19476;51.448;6.674;2023-10-09T08:24:52;8.50;;;4.68;;
33104;SDS011;19476;51.448;6.674;2023-10-09T08:27:24;10.20;;;5.20;;
33104;SDS011;19476;51.448;6.674;2023-10-09T08:30:00;7.68;;;4.57;;
33104;SDS011;19476;51.448;6.674;2023-10-09T08:32:43;9.90;;;5.20;;
33104;SDS011;19476;51.448;6.674;2023-10-09T08:35:33;8.27;;;4.80;;
33104;SDS011;19476;51.448;6.674;2023-10-09T08:38:00;7.65;;;4.40;;
33104;SDS011;19476;51.448;6.674;2023-10-09T08:40:34;7.63;;;4.40;;
33104;SDS011;19476;51.448;6.674;2023-10-09T08:43:09;8.98;;;4.85;;
33104;SDS011;19476;51.448;6.674;2023-10-09T08:45:45;9.32;;;5.35;;
33104;SDS011;19476;51.448;6.674;2023-10-09T08:48:12;11.88;;;5.35;;
33104;SDS011;19476;51.448;6.674;2023-10-09T08:50:42;8.90;;;5.32;;
33104;SDS011;19476;51.448;6.674;2023-10-09T08:53:13;7.93;;;4.78;;
33104;SDS011;19476;51.448;6.674;2023-10-09T08:55:41;7.88;;;4.35;;
33104;SDS011;19476;51.448;6.674;2023-10-09T08:58:08;9.23;;;5.03;;
33104;SDS011;19476;51.448;6.674;2023-10-09T09:00:46;8.25;;;4.85;;
33104;SDS011;19476;51.448;6.674;2023-10-09T09:03:16;9.18;;;4.88;;
33104;SDS011;19476;51.448;6.674;2023-10-09T09:05:45;8.23;;;4.72;;
33104;SDS011;19476;51.448;6.674;2023-10-09T09:08:21;10.05;;;5.88;;
33104;SDS011;19476;51.448;6.674;2023-10-09T09:10:56;7.88;;;4.55;;
33104;SDS011;19476;51.448;6.674;2023-10-09T09:13:43;9.88;;;4.72;;
33104;SDS011;19476;51.448;6.674;2023-10-09T09:16:23;12.00;;;5.75;;
33104;SDS011;19476;51.448;6.674;2023-10-09T09:18:57;9.35;;;5.18;;
33104;SDS011;19476;51.448;6.674;2023-10-09T09:21:34;11.88;;;6.30;;
33104;SDS011;19476;51.448;6.674;2023-10-09T09:24:06;14.82;;;5.88;;
33104;SDS011;19476;51.448;6.674;2023-10-09T09:26:46;10.15;;;5.07;;
33104;SDS011;19476;51.448;6.674;2023-10-09T09:29:14;11.68;;;5.43;;
33104;SDS011;19476;51.448;6.674;2023-10-09T09:31:51;11.88;;;5.00;;
33104;SDS011;19476;51.448;6.674;2023-10-09T09:34:22;9.25;;;5.22;;
33104;SDS011;19476;51.448;6.674;2023-10-09T09:36:54;8.82;;;4.93;;
33104;SDS011;19476;51.448;6.674;2023-10-09T09:39:22;9.85;;;5.65;;
33104;SDS011;19476;51.448;6.674;2023-10-09T09:42:00;10.80;;;5.97;;
33104;SDS011;19476;51.448;6.674;2023-10-09T09:44:32;11.33;;;4.83;;
33104;SDS011;19476;51.448;6.674;2023-10-09T09:47:08;10.05;;;5.38;;
33104;SDS011;19476;51.448;6.674;2023-10-09T09:49:38;9.25;;;5.60;;
33104;SDS011;19476;51.448;6.674;2023-10-09T09:52:07;10.50;;;5.57;;
33104;SDS011;19476;51.448;6.674;2023-10-09T09:54:37;9.52;;;5.50;;
33104;SDS011;19476;51.448;6.674;2023-10-09T09:57:03;10.38;;;5.55;;
33104;SDS011;19476;51.448;6.674;2023-10-09T09:59:44;10.35;;;5.80;;
33104;SDS011;19476;51.448;6.674;2023-10-09T10:02:18;12.02;;;6.28;;
33104;SDS011;19476;51.448;6.674;2023-10-09T10:04:51;8.13;;;5.10;;
33104;SDS011;19476;51.448;6.674;2023-10-09T10:07:21;11.25;;;5.80;;
33104;SDS011;19476;51.448;6.674;2023-10-09T10:09:50;9.70;;;5.77;;
33104;SDS011;19476;51.448;6.674;2023-10-09T10:13:04;10.23;;;5.10;;
33104;SDS011;19476;51.448;6.674;2023-10-09T10:21:28;11.32;;;5.22;;
33104;SDS011;19476;51.448;6.674;2023-10-09T10:23:57;10.70;;;4.72;;
33104;SDS011;19476;51.448;6.674;2023-10-09T10:26:35;9.70;;;5.22;;
33104;SDS011;19476;51.448;6.674;2023-10-09T10:29:17;10.85;;;5.35;;
33104;SDS011;19476;51.448;6.674;2023-10-09T10:32:02;9.93;;;5.57;;
33104;SDS011;19476;51.448;6.674;2023-10-09T10:34:51;9.18;;;5.40;;
33104;SDS011;19476;51.448;6.674;2023-10-09T10:37:35;8.02;;;4.65;;
33104;SDS011;19476;51.448;6.674;2023-10-09T10:40:23;8.95;;;4.72;;
33104;SDS011;19476;51.448;6.674;2023-10-09T10:43:18;10.98;;;5.40;;
33104;SDS011;19476;51.448;6.674;2023-10-09T10:46:02;11.40;;;4.90;;
33104;SDS011;19476;51.448;6.674;2023-10-09T10:48:51;8.68;;;4.40;;
33104;SDS011;19476;51.448;6.674;2023-10-09T10:51:36;9.40;;;5.35;;
33104;SDS011;19476;51.448;6.674;2023-10-09T10:54:08;8.75;;;5.28;;
33104;SDS011;19476;51.448;6.674;2023-10-09T10:56:53;9.52;;;5.60;;
33104;SDS011;19476;51.448;6.674;2023-10-09T10:59:22;12.80;;;5.35;;
33104;SDS011;19476;51.448;6.674;2023-10-09T11:01:51;9.40;;;5.57;;
33104;SDS011;19476;51.448;6.674;2023-10-09T11:04:40;10.98;;;5.53;;
33104;SDS011;19476;51.448;6.674;2023-10-09T11:07:07;9.40;;;5.40;;
33104;SDS011;19476;51.448;6.674;2023-10-09T11:09:48;10.27;;;5.70;;
33104;SDS011;19476;51.448;6.674;2023-10-09T11:12:30;11.85;;;6.65;;
33104;SDS011;19476;51.448;6.674;2023-10-09T11:15:15;10.25;;;5.00;;
33104;SDS011;19476;51.448;6.674;2023-10-09T11:18:05;9.60;;;5.43;;
33104;SDS011;19476;51.448;6.674;2023-10-09T11:20:33;10.57;;;6.18;;
33104;SDS011;19476;51.448;6.674;2023-10-09T11:23:05;10.85;;;5.68;;
33104;SDS011;19476;51.448;6.674;2023-10-09T11:25:45;8.73;;;5.70;;
33104;SDS011;19476;51.448;6.674;2023-10-09T11:30:54;8.60;;;5.25;;
33104;SDS011;19476;51.448;6.674;2023-10-09T11:33:41;10.15;;;5.32;;
33104;SDS011;19476;51.448;6.674;2023-10-09T11:36:17;9.77;;;5.50;;
33104;SDS011;19476;51.448;6.674;2023-10-09T11:38:57;9.95;;;5.47;;
33104;SDS011;19476;51.448;6.674;2023-10-09T11:41:42;9.70;;;4.88;;
33104;SDS011;19476;51.448;6.674;2023-10-09T11:44:10;8.60;;;4.97;;
33104;SDS011;19476;51.448;6.674;2023-10-09T11:46:59;9.15;;;5.97;;
33104;SDS011;19476;51.448;6.674;2023-10-09T11:49:50;9.38;;;5.93;;
33104;SDS011;19476;51.448;6.674;2023-10-09T11:52:41;9.85;;;4.97;;
33104;SDS011;19476;51.448;6.674;2023-10-09T11:55:34;9.90;;;5.47;;
33104;SDS011;19476;51.448;6.674;2023-10-09T11:58:00;10.57;;;5.25;;
33104;SDS011;19476;51.448;6.674;2023-10-09T12:00:27;10.55;;;5.90;;
33104;SDS011;19476;51.448;6.674;2023-10-09T12:02:57;12.15;;;6.43;;
33104;SDS011;19476;51.448;6.674;2023-10-09T12:05:31;10.05;;;6.18;;
33104;SDS011;19476;51.448;6.674;2023-10-09T12:07:57;11.60;;;6.18;;
33104;SDS011;19476;51.448;6.674;2023-10-09T12:10:24;11.02;;;5.72;;
33104;SDS011;19476;51.448;6.674;2023-10-09T12:12:54;10.23;;;6.20;;
33104;SDS011;19476;51.448;6.674;2023-10-09T12:15:23;10.55;;;5.82;;
33104;SDS011;19476;51.448;6.674;2023-10-09T12:17:49;11.75;;;6.85;;
33104;SDS011;19476;51.448;6.674;2023-10-09T12:20:18;10.23;;;6.30;;
33104;SDS011;19476;51.448;6.674;2023-10-09T12:23:00;10.50;;;5.85;;
33104;SDS011;19476;51.448;6.674;2023-10-09T12:25:30;10.07;;;5.72;;
33104;SDS011;19476;51.448;6.674;2023-10-09T12:28:00;10.45;;;6.35;;
33104;SDS011;19476;51.448;6.674;2023-10-09T12:30:27;10.32;;;5.65;;
33104;SDS011;19476;51.448;6.674;2023-10-09T12:32:54;12.35;;;6.68;;
33104;SDS011;19476;51.448;6.674;2023-10-09T12:35:26;9.63;;;5.32;;
33104;SDS011;19476;51.448;6.674;2023-10-09T12:44:05;10.82;;;5.65;;
33104;SDS011;19476;51.448;6.674;2023-10-09T12:46:37;11.80;;;7.05;;
33104;SDS011;19476;51.448;6.674;2023-10-09T12:49:03;11.15;;;6.32;;
33104;SDS011;19476;51.448;6.674;2023-10-09T12:51:30;12.20;;;6.95;;
33104;SDS011;19476;51.448;6.674;2023-10-09T12:53:56;11.23;;;6.55;;
33104;SDS011;19476;51.448;6.674;2023-10-09T12:56:26;10.23;;;6.63;;
33104;SDS011;19476;51.448;6.674;2023-10-09T12:59:01;13.02;;;7.65;;
33104;SDS011;19476;51.448;6.674;2023-10-09T13:01:29;12.93;;;7.50;;
33104;SDS011;19476;51.448;6.674;2023-10-09T13:04:00;14.57;;;7.63;;
33104;SDS011;19476;51.448;6.674;2023-10-09T13:06:26;13.02;;;6.97;;
33104;SDS011;19476;51.448;6.674;2023-10-09T13:08:52;10.48;;;6.53;;
33104;SDS011;19476;51.448;6.674;2023-10-09T13:11:24;9.98;;;6.40;;
33104;SDS011;19476;51.448;6.674;2023-10-09T13:13:50;10.20;;;6.35;;
33104;SDS011;19476;51.448;6.674;2023-10-09T13:16:17;8.88;;;5.95;;
33104;SDS011;19476;51.448;6.674;2023-10-09T13:18:50;10.98;;;5.50;;
33104;SDS011;19476;51.448;6.674;2023-10-09T13:21:17;10.43;;;6.05;;
33104;SDS011;19476;51.448;6.674;2023-10-09T13:23:43;17.23;;;7.72;;
33104;SDS011;19476;51.448;6.674;2023-10-09T13:26:12;14.20;;;7.70;;
33104;SDS011;19476;51.448;6.674;2023-10-09T13:28:49;14.85;;;7.88;;
33104;SDS011;19476;51.448;6.674;2023-10-09T13:31:16;10.63;;;7.00;;
33104;SDS011;19476;51.448;6.674;2023-10-09T13:33:43;10.77;;;6.80;;
33104;SDS011;19476;51.448;6.674;2023-10-09T13:36:09;13.15;;;6.63;;
33104;SDS011;19476;51.448;6.674;2023-10-09T13:38:51;11.77;;;6.10;;
33104;SDS011;19476;51.448;6.674;2023-10-09T13:41:21;10.70;;;6.20;;
33104;SDS011;19476;51.448;6.674;2023-10-09T13:43:50;12.90;;;6.78;;
33104;SDS011;19476;51.448;6.674;2023-10-09T13:46:16;10.82;;;6.38;;
33104;SDS011;19476;51.448;6.674;2023-10-09T13:48:43;10.80;;;6.30;;
33104;SDS011;19476;51.448;6.674;2023-10-09T13:51:10;10.88;;;6.43;;
33104;SDS011;19476;51.448;6.674;2023-10-09T13:53:45;11.27;;;6.20;;
33104;SDS011;19476;51.448;6.674;2023-10-09T13:56:15;11.13;;;6.32;;
33104;SDS011;19476;51.448;6.674;2023-10-09T13:58:49;10.95;;;6.53;;
33104;SDS011;19476;51.448;6.674;2023-10-09T14:01:18;14.68;;;7.72;;
33104;SDS011;19476;51.448;6.674;2023-10-09T14:03:58;13.52;;;8.00;;
33104;SDS011;19476;51.448;6.674;2023-10-09T14:06:32;12.55;;;7.20;;
33104;SDS011;19476;51.448;6.674;2023-10-09T14:09:01;12.10;;;7.05;;
33104;SDS011;19476;51.448;6.674;2023-10-09T14:11:30;10.70;;;6.80;;
33104;SDS011;19476;51.448;6.674;2023-10-09T14:14:03;11.07;;;6.80;;
33104;SDS011;19476;51.448;6.674;2023-10-09T14:16:29;11.70;;;7.00;;
33104;SDS011;19476;51.448;6.674;2023-10-09T14:18:58;12.93;;;7.45;;
33104;SDS011;19476;51.448;6.674;2023-10-09T14:21:28;10.93;;;7.10;;
33104;SDS011;19476;51.448;6.674;2023-10-09T14:23:58;13.93;;;7.93;;
33104;SDS011;19476;51.448;6.674;2023-10-09T14:26:27;10.88;;;7.30;;
33104;SDS011;19476;51.448;6.674;2023-10-09T14:28:54;11.10;;;6.43;;
33104;SDS011;19476;51.448;6.674;2023-10-09T14:31:24;13.23;;;7.43;;
33104;SDS011;19476;51.448;6.674;2023-10-09T14:33:54;11.05;;;6.53;;
33104;SDS011;19476;51.448;6.674;2023-10-09T14:36:20;11.02;;;6.88;;
33104;SDS011;19476;51.448;6.674;2023-10-09T14:38:50;11.82;;;7.30;;
33104;SDS011;19476;51.448;6.674;2023-10-09T14:41:21;12.10;;;7.43;;
33104;SDS011;19476;51.448;6.674;2023-10-09T14:43:52;11.77;;;6.68;;
33104;SDS011;19476;51.448;6.674;2023-10-09T14:46:18;15.30;;;8.00;;
33104;SDS011;19476;51.448;6.674;2023-10-09T14:48:53;9.93;;;6.88;;
33104;SDS011;19476;51.448;6.674;2023-10-09T14:51:20;11.73;;;6.68;;
33104;SDS011;19476;51.448;6.674;2023-10-09T14:53:53;15.05;;;8.25;;
33104;SDS011;19476;51.448;6.674;2023-10-09T14:56:22;11.73;;;7.13;;
33104;SDS011;19476;51.448;6.674;2023-10-09T14:58:58;17.85;;;8.65;;
33104;SDS011;19476;51.448;6.674;2023-10-09T15:01:28;11.95;;;7.43;;
33104;SDS011;19476;51.448;6.674;2023-10-09T15:03:57;12.85;;;7.65;;
33104;SDS011;19476;51.448;6.674;2023-10-09T15:06:29;16.73;;;8.80;;
33104;SDS011;19476;51.448;6.674;2023-10-09T15:08:56;14.20;;;7.72;;
33104;SDS011;19476;51.448;6.674;2023-10-09T15:11:33;13.27;;;7.95;;
33104;SDS011;19476;51.448;6.674;2023-10-09T15:13:59;13.10;;;7.22;;
33104;SDS011;19476;51.448;6.674;2023-10-09T15:16:25;10.75;;;6.38;;
33104;SDS011;19476;51.448;6.674;2023-10-09T15:18:56;10.18;;;6.50;;
33104;SDS011;19476;51.448;6.674;2023-10-09T15:21:23;11.65;;;6.95;;
33104;SDS011;19476;51.448;6.674;2023-10-09T15:23:55;14.77;;;7.77;;
33104;SDS011;19476;51.448;6.674;2023-10-09T15:26:21;15.30;;;8.27;;
33104;SDS011;19476;51.448;6.674;2023-10-09T15:28:49;11.98;;;7.07;;
33104;SDS011;19476;51.448;6.674;2023-10-09T15:31:15;10.05;;;6.22;;
33104;SDS011;19476;51.448;6.674;2023-10-09T15:33:42;10.82;;;6.80;;
33104;SDS011;19476;51.448;6.674;2023-10-09T15:36:14;12.30;;;7.32;;
33104;SDS011;19476;51.448;6.674;2023-10-09T15:38:50;11.75;;;6.90;;
33104;SDS011;19476;51.448;6.674;2023-10-09T15:41:16;14.00;;;7.93;;
33104;SDS011;19476;51.448;6.674;2023-10-09T15:43:46;13.18;;;7.68;;
33104;SDS011;19476;51.448;6.674;2023-10-09T15:46:12;14.50;;;6.57;;
33104;SDS011;19476;51.448;6.674;2023-10-09T15:48:41;14.33;;;7.40;;